Aérodrome :
LOGIN :

S'inscrire | Disclaimer

   EN    FR    IT 

 










Légende :    VFR   VFR Marginal   IFR   IFR Intensif   IFR Très Intensif
Visi : 
Plafond : 
>= 8 km
>= 3000ft
5 à 8 km
1000 à 3000 ft
1500m à 5 km
500 à 1000 ft
800 à 1500m
200 à 500 ft
< 800m
< 200 ft
Symboles :   Orages  Brouillard  Fortes neiges  Fortes précipitations  Vent > 20 kt
SIGMETs :   Divers  Orages  Givrage  Turbulence  Onde Orograph.  Cendres Volcan.






- Altitude de l'aérodrome : 157 ft
- Code IATA : LIL


LFQQ - Lille Lesquin

DERNIER METAR :
  • 200030Z AUTO 30010KT 9999 FEW029 SCT054 BKN064 05/03 Q1020 TEMPO 34018G30KT 2500 SHRAGS SCT012TCU BKN020

METARs EXPIRÉS :
  • 200000Z AUTO 32011KT 9999 FEW026 BKN036 BKN047 06/03 Q1020 TEMPO 34018G30KT 2500 SHRAGS SCT012TCU BKN020
  • 192330Z AUTO 33011KT 300V360 9999 -RA FEW026/// SCT033/// BKN039/// ///TCU 06/03 Q1020 TEMPO 34018G30KT 2500 SHRAGS
  • 192300Z AUTO 32012KT 9999 FEW033 BKN052 BKN064 06/02 Q1019 TEMPO 34018G30KT 2500 SHRAGS SCT012TCU BKN020
  • 192230Z AUTO 32016G28KT 9999 FEW029 BKN044 BKN062 06/03 Q1020 TEMPO 2500 SHRAGS SCT012TCU BKN020
  • 192200Z AUTO 31010KT CAVOK 06/03 Q1019 TEMPO 34018G30KT 2500 SHRAGS SCT012TCU BKN020
  • 192130Z AUTO 31009KT 9999 FEW031 SCT039 BKN054 06/03 Q1019 TEMPO 34018G30KT 2500 SHRAGS SCT012TCU BKN020
  • 192100Z AUTO 31010KT CAVOK 06/03 Q1019 TEMPO 34018G30KT 2500 SHRAGS SCT012TCU BKN020
  • 192030Z AUTO 32009KT 9999 FEW020 SCT033 BKN056 06/03 Q1019 TEMPO 2500 SHRAGS SCT012TCU BKN020

TAF TAF LFQQ
Valide du 20 à 00h jusqu'au 21 à 06h UTC


192300Z 2000/2106 34012KT 9999 SCT030 SCT045
TEMPO 2000/2106 4000 SHRA SCT012TCU BKN020
PROB40
TEMPO 2000/2106 34018G30KT 2500 SHRAGS
ATIS : +33 3 20 16 19 54



MET'MAP, la Météo Aéronautique d'un coup d'oeil ! - Copyright ORBIFLY Décembre 2007 - Disclaimer

ORBIFLY MET'MAP TEAM :

Programmation & Développement : Alexandra Zaïnal
Sur une idée originale de : Baudouin d'Aumeries
Soutien technique & logistique : Manuel Goepfert
Assistance : Marc-Olivier Méhu




SOURCES & CREDITS :

   NOAA